sensor_id;sensor_type;location;lat;lon;timestamp;P1;durP1;ratioP1;P2;durP2;ratioP2
21120;SDS011;12519;43.318;21.898;2022-10-31T00:02:50;27.0;;;26.0;;
21120;SDS011;12519;43.318;21.898;2022-10-31T00:07:26;30.0;;;28.0;;
21120;SDS011;12519;43.318;21.898;2022-10-31T00:12:04;30.0;;;28.0;;
21120;SDS011;12519;43.318;21.898;2022-10-31T00:16:41;34.0;;;30.0;;
21120;SDS011;12519;43.318;21.898;2022-10-31T00:21:19;34.0;;;30.0;;
21120;SDS011;12519;43.318;21.898;2022-10-31T00:26:03;32.0;;;29.0;;
21120;SDS011;12519;43.318;21.898;2022-10-31T00:30:41;32.0;;;29.0;;
21120;SDS011;12519;43.318;21.898;2022-10-31T00:35:18;32.0;;;29.0;;
21120;SDS011;12519;43.318;21.898;2022-10-31T00:39:54;30.0;;;28.0;;
21120;SDS011;12519;43.318;21.898;2022-10-31T00:44:31;30.0;;;28.0;;
21120;SDS011;12519;43.318;21.898;2022-10-31T00:49:08;32.0;;;28.0;;
21120;SDS011;12519;43.318;21.898;2022-10-31T00:53:44;32.0;;;28.0;;
21120;SDS011;12519;43.318;21.898;2022-10-31T00:58:22;33.0;;;29.0;;
21120;SDS011;12519;43.318;21.898;2022-10-31T01:02:59;33.0;;;29.0;;
21120;SDS011;12519;43.318;21.898;2022-10-31T01:07:38;36.0;;;32.0;;
21120;SDS011;12519;43.318;21.898;2022-10-31T01:12:17;36.0;;;32.0;;
21120;SDS011;12519;43.318;21.898;2022-10-31T01:16:54;39.0;;;35.0;;
21120;SDS011;12519;43.318;21.898;2022-10-31T01:21:31;39.0;;;35.0;;
21120;SDS011;12519;43.318;21.898;2022-10-31T01:26:16;36.0;;;32.0;;
21120;SDS011;12519;43.318;21.898;2022-10-31T01:31:04;36.0;;;32.0;;
21120;SDS011;12519;43.318;21.898;2022-10-31T01:35:45;36.0;;;32.0;;
21120;SDS011;12519;43.318;21.898;2022-10-31T01:40:22;34.0;;;29.0;;
21120;SDS011;12519;43.318;21.898;2022-10-31T01:45:01;34.0;;;29.0;;
21120;SDS011;12519;43.318;21.898;2022-10-31T01:49:55;37.0;;;30.0;;
21120;SDS011;12519;43.318;21.898;2022-10-31T01:54:56;37.0;;;30.0;;
21120;SDS011;12519;43.318;21.898;2022-10-31T01:59:53;40.0;;;32.0;;
21120;SDS011;12519;43.318;21.898;2022-10-31T02:04:41;40.0;;;32.0;;
21120;SDS011;12519;43.318;21.898;2022-10-31T02:09:21;36.0;;;30.0;;
21120;SDS011;12519;43.318;21.898;2022-10-31T02:14:03;36.0;;;30.0;;
21120;SDS011;12519;43.318;21.898;2022-10-31T02:18:40;33.0;;;28.0;;
21120;SDS011;12519;43.318;21.898;2022-10-31T02:24:41;33.0;;;28.0;;
21120;SDS011;12519;43.318;21.898;2022-10-31T02:30:12;34.0;;;30.0;;
21120;SDS011;12519;43.318;21.898;2022-10-31T02:35:31;34.0;;;30.0;;
21120;SDS011;12519;43.318;21.898;2022-10-31T02:40:39;35.0;;;33.0;;
21120;SDS011;12519;43.318;21.898;2022-10-31T02:45:48;35.0;;;33.0;;
21120;SDS011;12519;43.318;21.898;2022-10-31T02:50:49;35.0;;;33.0;;
21120;SDS011;12519;43.318;21.898;2022-10-31T02:56:15;35.0;;;33.0;;
21120;SDS011;12519;43.318;21.898;2022-10-31T03:01:39;35.0;;;33.0;;
21120;SDS011;12519;43.318;21.898;2022-10-31T03:07:08;32.0;;;30.0;;
21120;SDS011;12519;43.318;21.898;2022-10-31T03:12:26;32.0;;;30.0;;
21120;SDS011;12519;43.318;21.898;2022-10-31T03:17:36;29.0;;;26.0;;
21120;SDS011;12519;43.318;21.898;2022-10-31T03:22:42;29.0;;;26.0;;
21120;SDS011;12519;43.318;21.898;2022-10-31T03:27:31;32.0;;;28.0;;
21120;SDS011;12519;43.318;21.898;2022-10-31T03:32:23;32.0;;;28.0;;
21120;SDS011;12519;43.318;21.898;2022-10-31T03:37:15;36.0;;;30.0;;
21120;SDS011;12519;43.318;21.898;2022-10-31T03:42:08;36.0;;;30.0;;
21120;SDS011;12519;43.318;21.898;2022-10-31T03:46:52;34.0;;;30.0;;
21120;SDS011;12519;43.318;21.898;2022-10-31T03:51:49;34.0;;;30.0;;
21120;SDS011;12519;43.318;21.898;2022-10-31T03:56:58;32.0;;;29.0;;
21120;SDS011;12519;43.318;21.898;2022-10-31T04:02:07;32.0;;;29.0;;
21120;SDS011;12519;43.318;21.898;2022-10-31T04:07:01;33.0;;;28.0;;
21120;SDS011;12519;43.318;21.898;2022-10-31T04:11:54;33.0;;;28.0;;
21120;SDS011;12519;43.318;21.898;2022-10-31T04:16:45;34.0;;;28.0;;
21120;SDS011;12519;43.318;21.898;2022-10-31T04:21:29;34.0;;;28.0;;
21120;SDS011;12519;43.318;21.898;2022-10-31T04:26:12;34.0;;;28.0;;
21120;SDS011;12519;43.318;21.898;2022-10-31T04:30:50;32.0;;;28.0;;
21120;SDS011;12519;43.318;21.898;2022-10-31T04:35:28;32.0;;;28.0;;
21120;SDS011;12519;43.318;21.898;2022-10-31T04:40:08;31.0;;;28.0;;
21120;SDS011;12519;43.318;21.898;2022-10-31T04:44:46;31.0;;;28.0;;
21120;SDS011;12519;43.318;21.898;2022-10-31T04:49:23;34.0;;;30.0;;
21120;SDS011;12519;43.318;21.898;2022-10-31T04:54:00;34.0;;;30.0;;
21120;SDS011;12519;43.318;21.898;2022-10-31T04:58:36;36.0;;;31.0;;
21120;SDS011;12519;43.318;21.898;2022-10-31T05:03:13;36.0;;;31.0;;
21120;SDS011;12519;43.318;21.898;2022-10-31T05:07:52;38.0;;;34.0;;
21120;SDS011;12519;43.318;21.898;2022-10-31T05:12:29;38.0;;;34.0;;
21120;SDS011;12519;43.318;21.898;2022-10-31T05:17:06;40.0;;;36.0;;
21120;SDS011;12519;43.318;21.898;2022-10-31T05:21:42;40.0;;;36.0;;
21120;SDS011;12519;43.318;21.898;2022-10-31T05:26:19;40.0;;;36.0;;
21120;SDS011;12519;43.318;21.898;2022-10-31T05:30:56;34.0;;;31.0;;
21120;SDS011;12519;43.318;21.898;2022-10-31T05:35:33;34.0;;;31.0;;
21120;SDS011;12519;43.318;21.898;2022-10-31T05:40:16;27.0;;;26.0;;
21120;SDS011;12519;43.318;21.898;2022-10-31T05:44:58;27.0;;;26.0;;
21120;SDS011;12519;43.318;21.898;2022-10-31T05:49:35;30.0;;;26.0;;
21120;SDS011;12519;43.318;21.898;2022-10-31T05:54:12;30.0;;;26.0;;
21120;SDS011;12519;43.318;21.898;2022-10-31T05:58:49;34.0;;;27.0;;
21120;SDS011;12519;43.318;21.898;2022-10-31T06:03:25;34.0;;;27.0;;
21120;SDS011;12519;43.318;21.898;2022-10-31T06:08:02;41.0;;;34.0;;
21120;SDS011;12519;43.318;21.898;2022-10-31T06:12:39;41.0;;;34.0;;
21120;SDS011;12519;43.318;21.898;2022-10-31T06:17:16;48.0;;;42.0;;
21120;SDS011;12519;43.318;21.898;2022-10-31T06:21:52;48.0;;;42.0;;
21120;SDS011;12519;43.318;21.898;2022-10-31T06:26:29;48.0;;;42.0;;
21120;SDS011;12519;43.318;21.898;2022-10-31T06:31:06;42.0;;;36.0;;
21120;SDS011;12519;43.318;21.898;2022-10-31T06:35:46;42.0;;;36.0;;
21120;SDS011;12519;43.318;21.898;2022-10-31T06:40:24;35.0;;;30.0;;
21120;SDS011;12519;43.318;21.898;2022-10-31T06:45:01;35.0;;;30.0;;
21120;SDS011;12519;43.318;21.898;2022-10-31T06:49:39;42.0;;;37.0;;
21120;SDS011;12519;43.318;21.898;2022-10-31T06:54:21;42.0;;;37.0;;
21120;SDS011;12519;43.318;21.898;2022-10-31T06:58:58;48.0;;;44.0;;
21120;SDS011;12519;43.318;21.898;2022-10-31T07:03:35;48.0;;;44.0;;
21120;SDS011;12519;43.318;21.898;2022-10-31T07:08:14;43.0;;;39.0;;
21120;SDS011;12519;43.318;21.898;2022-10-31T07:12:55;43.0;;;39.0;;
21120;SDS011;12519;43.318;21.898;2022-10-31T07:17:36;38.0;;;34.0;;
21120;SDS011;12519;43.318;21.898;2022-10-31T07:22:13;38.0;;;34.0;;
21120;SDS011;12519;43.318;21.898;2022-10-31T07:26:49;38.0;;;34.0;;
21120;SDS011;12519;43.318;21.898;2022-10-31T07:31:26;42.0;;;38.0;;
21120;SDS011;12519;43.318;21.898;2022-10-31T07:36:04;42.0;;;38.0;;
21120;SDS011;12519;43.318;21.898;2022-10-31T07:40:43;46.0;;;42.0;;
21120;SDS011;12519;43.318;21.898;2022-10-31T07:45:21;46.0;;;42.0;;
21120;SDS011;12519;43.318;21.898;2022-10-31T07:49:57;60.0;;;48.0;;
21120;SDS011;12519;43.318;21.898;2022-10-31T07:54:34;60.0;;;48.0;;
21120;SDS011;12519;43.318;21.898;2022-10-31T07:59:11;73.0;;;54.0;;
21120;SDS011;12519;43.318;21.898;2022-10-31T08:03:47;73.0;;;54.0;;
21120;SDS011;12519;43.318;21.898;2022-10-31T08:08:24;63.0;;;52.0;;
21120;SDS011;12519;43.318;21.898;2022-10-31T08:13:08;63.0;;;52.0;;
21120;SDS011;12519;43.318;21.898;2022-10-31T08:17:48;53.0;;;49.0;;
21120;SDS011;12519;43.318;21.898;2022-10-31T08:22:25;53.0;;;49.0;;
21120;SDS011;12519;43.318;21.898;2022-10-31T08:27:02;51.0;;;47.0;;
21120;SDS011;12519;43.318;21.898;2022-10-31T08:31:39;51.0;;;47.0;;
21120;SDS011;12519;43.318;21.898;2022-10-31T08:36:16;51.0;;;47.0;;
21120;SDS011;12519;43.318;21.898;2022-10-31T08:40:53;49.0;;;45.0;;
21120;SDS011;12519;43.318;21.898;2022-10-31T08:45:34;49.0;;;45.0;;
21120;SDS011;12519;43.318;21.898;2022-10-31T08:50:11;52.0;;;46.0;;
21120;SDS011;12519;43.318;21.898;2022-10-31T08:54:47;52.0;;;46.0;;
21120;SDS011;12519;43.318;21.898;2022-10-31T08:59:28;54.0;;;47.0;;
21120;SDS011;12519;43.318;21.898;2022-10-31T09:04:05;54.0;;;47.0;;
21120;SDS011;12519;43.318;21.898;2022-10-31T09:08:42;63.0;;;52.0;;
21120;SDS011;12519;43.318;21.898;2022-10-31T09:13:21;63.0;;;52.0;;
21120;SDS011;12519;43.318;21.898;2022-10-31T09:17:59;72.0;;;57.0;;
21120;SDS011;12519;43.318;21.898;2022-10-31T09:22:36;72.0;;;57.0;;
21120;SDS011;12519;43.318;21.898;2022-10-31T09:27:13;58.0;;;48.0;;
21120;SDS011;12519;43.318;21.898;2022-10-31T09:31:50;58.0;;;48.0;;
21120;SDS011;12519;43.318;21.898;2022-10-31T09:36:27;58.0;;;48.0;;
21120;SDS011;12519;43.318;21.898;2022-10-31T09:41:23;43.0;;;38.0;;
21120;SDS011;12519;43.318;21.898;2022-10-31T09:46:54;43.0;;;38.0;;
21120;SDS011;12519;43.318;21.898;2022-10-31T09:52:17;42.0;;;38.0;;
21120;SDS011;12519;43.318;21.898;2022-10-31T09:57:17;41.0;;;38.0;;
21120;SDS011;12519;43.318;21.898;2022-10-31T10:02:27;41.0;;;38.0;;
21120;SDS011;12519;43.318;21.898;2022-10-31T10:07:37;41.0;;;38.0;;
21120;SDS011;12519;43.318;21.898;2022-10-31T10:13:14;41.0;;;38.0;;
21120;SDS011;12519;43.318;21.898;2022-10-31T10:18:44;41.0;;;38.0;;
21120;SDS011;12519;43.318;21.898;2022-10-31T10:24:18;41.0;;;38.0;;
21120;SDS011;12519;43.318;21.898;2022-10-31T10:29:39;40.0;;;37.0;;
21120;SDS011;12519;43.318;21.898;2022-10-31T10:34:39;40.0;;;37.0;;
21120;SDS011;12519;43.318;21.898;2022-10-31T10:39:38;40.0;;;36.0;;
21120;SDS011;12519;43.318;21.898;2022-10-31T10:44:24;40.0;;;36.0;;
21120;SDS011;12519;43.318;21.898;2022-10-31T10:49:19;36.0;;;32.0;;
21120;SDS011;12519;43.318;21.898;2022-10-31T10:54:41;36.0;;;32.0;;
21120;SDS011;12519;43.318;21.898;2022-10-31T10:59:34;32.0;;;28.0;;
21120;SDS011;12519;43.318;21.898;2022-10-31T11:04:33;32.0;;;28.0;;
21120;SDS011;12519;43.318;21.898;2022-10-31T11:09:14;30.0;;;26.0;;
21120;SDS011;12519;43.318;21.898;2022-10-31T11:14:05;30.0;;;26.0;;
21120;SDS011;12519;43.318;21.898;2022-10-31T11:19:05;28.0;;;24.0;;
21120;SDS011;12519;43.318;21.898;2022-10-31T11:24:15;28.0;;;24.0;;
21120;SDS011;12519;43.318;21.898;2022-10-31T11:28:59;26.0;;;24.0;;
21120;SDS011;12519;43.318;21.898;2022-10-31T11:33:55;26.0;;;24.0;;
21120;SDS011;12519;43.318;21.898;2022-10-31T11:38:43;25.0;;;24.0;;
21120;SDS011;12519;43.318;21.898;2022-10-31T11:43:23;25.0;;;24.0;;
21120;SDS011;12519;43.318;21.898;2022-10-31T11:48:16;27.0;;;24.0;;
21120;SDS011;12519;43.318;21.898;2022-10-31T11:52:58;27.0;;;24.0;;
21120;SDS011;12519;43.318;21.898;2022-10-31T11:57:48;29.0;;;23.0;;
21120;SDS011;12519;43.318;21.898;2022-10-31T12:02:30;29.0;;;23.0;;
21120;SDS011;12519;43.318;21.898;2022-10-31T12:07:08;29.0;;;23.0;;
21120;SDS011;12519;43.318;21.898;2022-10-31T12:12:23;25.0;;;22.0;;
21120;SDS011;12519;43.318;21.898;2022-10-31T12:17:37;21.0;;;20.0;;
21120;SDS011;12519;43.318;21.898;2022-10-31T12:22:52;21.0;;;20.0;;
21120;SDS011;12519;43.318;21.898;2022-10-31T12:28:32;23.0;;;21.0;;
21120;SDS011;12519;43.318;21.898;2022-10-31T12:34:33;23.0;;;21.0;;
21120;SDS011;12519;43.318;21.898;2022-10-31T12:40:29;25.0;;;22.0;;
21120;SDS011;12519;43.318;21.898;2022-10-31T12:45:55;25.0;;;22.0;;
21120;SDS011;12519;43.318;21.898;2022-10-31T12:51:04;26.0;;;22.0;;
21120;SDS011;12519;43.318;21.898;2022-10-31T12:56:31;26.0;;;22.0;;
21120;SDS011;12519;43.318;21.898;2022-10-31T13:01:38;26.0;;;23.0;;
21120;SDS011;12519;43.318;21.898;2022-10-31T13:06:41;26.0;;;23.0;;
21120;SDS011;12519;43.318;21.898;2022-10-31T13:11:42;26.0;;;22.0;;
21120;SDS011;12519;43.318;21.898;2022-10-31T13:16:44;26.0;;;22.0;;
21120;SDS011;12519;43.318;21.898;2022-10-31T13:21:37;27.0;;;22.0;;
21120;SDS011;12519;43.318;21.898;2022-10-31T13:26:42;27.0;;;22.0;;
21120;SDS011;12519;43.318;21.898;2022-10-31T13:31:25;25.0;;;22.0;;
21120;SDS011;12519;43.318;21.898;2022-10-31T13:36:32;25.0;;;22.0;;
21120;SDS011;12519;43.318;21.898;2022-10-31T13:41:46;23.0;;;22.0;;
21120;SDS011;12519;43.318;21.898;2022-10-31T13:46:41;23.0;;;22.0;;
21120;SDS011;12519;43.318;21.898;2022-10-31T13:51:31;22.0;;;21.0;;
21120;SDS011;12519;43.318;21.898;2022-10-31T13:56:23;22.0;;;21.0;;
21120;SDS011;12519;43.318;21.898;2022-10-31T14:01:20;22.0;;;20.0;;
21120;SDS011;12519;43.318;21.898;2022-10-31T14:05:58;22.0;;;20.0;;
21120;SDS011;12519;43.318;21.898;2022-10-31T14:10:49;22.0;;;20.0;;
21120;SDS011;12519;43.318;21.898;2022-10-31T14:15:32;22.0;;;20.0;;
21120;SDS011;12519;43.318;21.898;2022-10-31T14:20:39;22.0;;;21.0;;
21120;SDS011;12519;43.318;21.898;2022-10-31T14:25:33;22.0;;;21.0;;
21120;SDS011;12519;43.318;21.898;2022-10-31T14:30:21;20.0;;;20.0;;
21120;SDS011;12519;43.318;21.898;2022-10-31T14:35:09;20.0;;;20.0;;
21120;SDS011;12519;43.318;21.898;2022-10-31T14:40:23;19.0;;;18.0;;
21120;SDS011;12519;43.318;21.898;2022-10-31T14:45:55;19.0;;;18.0;;
21120;SDS011;12519;43.318;21.898;2022-10-31T14:50:54;24.0;;;20.0;;
21120;SDS011;12519;43.318;21.898;2022-10-31T14:55:46;24.0;;;20.0;;
21120;SDS011;12519;43.318;21.898;2022-10-31T15:00:35;28.0;;;21.0;;
21120;SDS011;12519;43.318;21.898;2022-10-31T15:05:14;28.0;;;21.0;;
21120;SDS011;12519;43.318;21.898;2022-10-31T15:10:00;28.0;;;22.0;;
21120;SDS011;12519;43.318;21.898;2022-10-31T15:14:56;28.0;;;22.0;;
21120;SDS011;12519;43.318;21.898;2022-10-31T15:19:40;28.0;;;24.0;;
21120;SDS011;12519;43.318;21.898;2022-10-31T15:24:29;28.0;;;24.0;;
21120;SDS011;12519;43.318;21.898;2022-10-31T15:29:18;34.0;;;30.0;;
21120;SDS011;12519;43.318;21.898;2022-10-31T15:34:14;34.0;;;30.0;;
21120;SDS011;12519;43.318;21.898;2022-10-31T15:39:01;41.0;;;36.0;;
21120;SDS011;12519;43.318;21.898;2022-10-31T15:43:44;41.0;;;36.0;;
21120;SDS011;12519;43.318;21.898;2022-10-31T15:48:24;94.0;;;78.0;;
21120;SDS011;12519;43.318;21.898;2022-10-31T15:53:05;94.0;;;78.0;;
21120;SDS011;12519;43.318;21.898;2022-10-31T15:58:10;146.0;;;120.0;;
21120;SDS011;12519;43.318;21.898;2022-10-31T16:03:07;146.0;;;120.0;;
21120;SDS011;12519;43.318;21.898;2022-10-31T16:08:00;120.0;;;98.0;;
21120;SDS011;12519;43.318;21.898;2022-10-31T16:12:45;120.0;;;98.0;;
21120;SDS011;12519;43.318;21.898;2022-10-31T16:17:27;120.0;;;98.0;;
21120;SDS011;12519;43.318;21.898;2022-10-31T16:22:13;95.0;;;76.0;;
21120;SDS011;12519;43.318;21.898;2022-10-31T16:27:22;95.0;;;76.0;;
21120;SDS011;12519;43.318;21.898;2022-10-31T16:32:30;77.0;;;64.0;;
21120;SDS011;12519;43.318;21.898;2022-10-31T16:37:27;77.0;;;64.0;;
21120;SDS011;12519;43.318;21.898;2022-10-31T16:42:04;59.0;;;53.0;;
21120;SDS011;12519;43.318;21.898;2022-10-31T16:46:45;59.0;;;53.0;;
21120;SDS011;12519;43.318;21.898;2022-10-31T16:51:22;63.0;;;54.0;;
21120;SDS011;12519;43.318;21.898;2022-10-31T16:56:03;63.0;;;54.0;;
21120;SDS011;12519;43.318;21.898;2022-10-31T17:00:40;67.0;;;55.0;;
21120;SDS011;12519;43.318;21.898;2022-10-31T17:05:22;67.0;;;55.0;;
21120;SDS011;12519;43.318;21.898;2022-10-31T17:09:59;64.0;;;54.0;;
21120;SDS011;12519;43.318;21.898;2022-10-31T17:14:36;64.0;;;54.0;;
21120;SDS011;12519;43.318;21.898;2022-10-31T17:19:14;61.0;;;52.0;;
21120;SDS011;12519;43.318;21.898;2022-10-31T17:23:51;61.0;;;52.0;;
21120;SDS011;12519;43.318;21.898;2022-10-31T17:28:29;58.0;;;50.0;;
21120;SDS011;12519;43.318;21.898;2022-10-31T17:33:13;58.0;;;50.0;;
21120;SDS011;12519;43.318;21.898;2022-10-31T17:37:52;58.0;;;50.0;;
21120;SDS011;12519;43.318;21.898;2022-10-31T17:42:29;55.0;;;47.0;;
21120;SDS011;12519;43.318;21.898;2022-10-31T17:47:06;55.0;;;47.0;;
21120;SDS011;12519;43.318;21.898;2022-10-31T17:51:43;48.0;;;42.0;;
21120;SDS011;12519;43.318;21.898;2022-10-31T17:56:20;48.0;;;42.0;;
21120;SDS011;12519;43.318;21.898;2022-10-31T18:00:58;42.0;;;38.0;;
21120;SDS011;12519;43.318;21.898;2022-10-31T18:05:35;42.0;;;38.0;;
21120;SDS011;12519;43.318;21.898;2022-10-31T18:10:12;52.0;;;44.0;;
21120;SDS011;12519;43.318;21.898;2022-10-31T18:14:50;52.0;;;44.0;;
21120;SDS011;12519;43.318;21.898;2022-10-31T18:19:27;61.0;;;51.0;;
21120;SDS011;12519;43.318;21.898;2022-10-31T18:24:08;61.0;;;51.0;;
21120;SDS011;12519;43.318;21.898;2022-10-31T18:28:45;61.0;;;50.0;;
21120;SDS011;12519;43.318;21.898;2022-10-31T18:33:21;61.0;;;50.0;;
21120;SDS011;12519;43.318;21.898;2022-10-31T18:37:58;61.0;;;50.0;;
21120;SDS011;12519;43.318;21.898;2022-10-31T18:42:35;61.0;;;49.0;;
21120;SDS011;12519;43.318;21.898;2022-10-31T18:47:12;61.0;;;49.0;;
21120;SDS011;12519;43.318;21.898;2022-10-31T18:51:49;58.0;;;51.0;;
21120;SDS011;12519;43.318;21.898;2022-10-31T18:56:29;58.0;;;51.0;;
21120;SDS011;12519;43.318;21.898;2022-10-31T19:01:10;56.0;;;53.0;;
21120;SDS011;12519;43.318;21.898;2022-10-31T19:05:54;56.0;;;53.0;;
21120;SDS011;12519;43.318;21.898;2022-10-31T19:10:34;53.0;;;50.0;;
21120;SDS011;12519;43.318;21.898;2022-10-31T19:15:15;53.0;;;50.0;;
21120;SDS011;12519;43.318;21.898;2022-10-31T19:19:52;50.0;;;46.0;;
21120;SDS011;12519;43.318;21.898;2022-10-31T19:24:29;50.0;;;46.0;;
21120;SDS011;12519;43.318;21.898;2022-10-31T19:29:05;55.0;;;48.0;;
21120;SDS011;12519;43.318;21.898;2022-10-31T19:33:42;55.0;;;48.0;;
21120;SDS011;12519;43.318;21.898;2022-10-31T19:38:19;60.0;;;51.0;;
21120;SDS011;12519;43.318;21.898;2022-10-31T19:42:57;60.0;;;51.0;;
21120;SDS011;12519;43.318;21.898;2022-10-31T19:47:34;60.0;;;51.0;;
21120;SDS011;12519;43.318;21.898;2022-10-31T19:52:10;64.0;;;54.0;;
21120;SDS011;12519;43.318;21.898;2022-10-31T19:56:47;64.0;;;54.0;;
21120;SDS011;12519;43.318;21.898;2022-10-31T20:01:25;67.0;;;58.0;;
21120;SDS011;12519;43.318;21.898;2022-10-31T20:06:04;67.0;;;58.0;;
21120;SDS011;12519;43.318;21.898;2022-10-31T20:11:00;70.0;;;60.0;;
21120;SDS011;12519;43.318;21.898;2022-10-31T20:15:39;70.0;;;60.0;;
21120;SDS011;12519;43.318;21.898;2022-10-31T20:20:16;74.0;;;61.0;;
21120;SDS011;12519;43.318;21.898;2022-10-31T20:24:53;74.0;;;61.0;;
21120;SDS011;12519;43.318;21.898;2022-10-31T20:29:30;84.0;;;69.0;;
21120;SDS011;12519;43.318;21.898;2022-10-31T20:34:07;84.0;;;69.0;;
21120;SDS011;12519;43.318;21.898;2022-10-31T20:38:44;93.0;;;77.0;;
21120;SDS011;12519;43.318;21.898;2022-10-31T20:43:22;93.0;;;77.0;;
21120;SDS011;12519;43.318;21.898;2022-10-31T20:47:59;93.0;;;77.0;;
21120;SDS011;12519;43.318;21.898;2022-10-31T20:52:36;87.0;;;71.0;;
21120;SDS011;12519;43.318;21.898;2022-10-31T20:57:12;87.0;;;71.0;;
21120;SDS011;12519;43.318;21.898;2022-10-31T21:01:49;81.0;;;65.0;;
21120;SDS011;12519;43.318;21.898;2022-10-31T21:06:28;81.0;;;65.0;;
21120;SDS011;12519;43.318;21.898;2022-10-31T21:11:12;70.0;;;56.0;;
21120;SDS011;12519;43.318;21.898;2022-10-31T21:16:00;70.0;;;56.0;;
21120;SDS011;12519;43.318;21.898;2022-10-31T21:20:43;59.0;;;48.0;;
21120;SDS011;12519;43.318;21.898;2022-10-31T21:25:21;59.0;;;48.0;;
21120;SDS011;12519;43.318;21.898;2022-10-31T21:29:58;64.0;;;54.0;;
21120;SDS011;12519;43.318;21.898;2022-10-31T21:34:34;64.0;;;54.0;;
21120;SDS011;12519;43.318;21.898;2022-10-31T21:39:12;69.0;;;61.0;;
21120;SDS011;12519;43.318;21.898;2022-10-31T21:43:52;69.0;;;61.0;;
21120;SDS011;12519;43.318;21.898;2022-10-31T21:48:30;69.0;;;61.0;;
21120;SDS011;12519;43.318;21.898;2022-10-31T21:53:08;65.0;;;58.0;;
21120;SDS011;12519;43.318;21.898;2022-10-31T21:57:44;65.0;;;58.0;;
21120;SDS011;12519;43.318;21.898;2022-10-31T22:02:21;61.0;;;54.0;;
21120;SDS011;12519;43.318;21.898;2022-10-31T22:06:58;61.0;;;54.0;;
21120;SDS011;12519;43.318;21.898;2022-10-31T22:11:35;67.0;;;54.0;;
21120;SDS011;12519;43.318;21.898;2022-10-31T22:16:18;67.0;;;54.0;;
21120;SDS011;12519;43.318;21.898;2022-10-31T22:21:02;73.0;;;55.0;;
21120;SDS011;12519;43.318;21.898;2022-10-31T22:25:42;73.0;;;55.0;;
21120;SDS011;12519;43.318;21.898;2022-10-31T22:30:19;65.0;;;52.0;;
21120;SDS011;12519;43.318;21.898;2022-10-31T22:34:55;65.0;;;52.0;;
21120;SDS011;12519;43.318;21.898;2022-10-31T22:39:32;57.0;;;49.0;;
21120;SDS011;12519;43.318;21.898;2022-10-31T22:44:09;57.0;;;49.0;;
21120;SDS011;12519;43.318;21.898;2022-10-31T22:48:53;52.0;;;45.0;;
21120;SDS011;12519;43.318;21.898;2022-10-31T22:53:39;52.0;;;45.0;;
21120;SDS011;12519;43.318;21.898;2022-10-31T22:58:19;52.0;;;45.0;;
21120;SDS011;12519;43.318;21.898;2022-10-31T23:02:56;46.0;;;41.0;;
21120;SDS011;12519;43.318;21.898;2022-10-31T23:07:33;46.0;;;41.0;;
21120;SDS011;12519;43.318;21.898;2022-10-31T23:12:10;48.0;;;42.0;;
21120;SDS011;12519;43.318;21.898;2022-10-31T23:16:52;48.0;;;42.0;;
21120;SDS011;12519;43.318;21.898;2022-10-31T23:21:33;50.0;;;43.0;;
21120;SDS011;12519;43.318;21.898;2022-10-31T23:26:14;50.0;;;43.0;;
21120;SDS011;12519;43.318;21.898;2022-10-31T23:30:51;49.0;;;42.0;;
21120;SDS011;12519;43.318;21.898;2022-10-31T23:35:27;49.0;;;42.0;;
21120;SDS011;12519;43.318;21.898;2022-10-31T23:40:07;48.0;;;40.0;;
21120;SDS011;12519;43.318;21.898;2022-10-31T23:44:47;48.0;;;40.0;;
21120;SDS011;12519;43.318;21.898;2022-10-31T23:49:24;46.0;;;40.0;;
21120;SDS011;12519;43.318;21.898;2022-10-31T23:54:01;46.0;;;40.0;;
21120;SDS011;12519;43.318;21.898;2022-10-31T23:58:39;46.0;;;40.0;;
